sensor_id;sensor_type;location;lat;lon;timestamp;pressure;altitude;pressure_sealevel;temperature;humidity
72548;BME280;60570;50.848;6.776;2023-02-28T00:00:03;101827.50;;;4.87;57.42
72548;BME280;60570;50.848;6.776;2023-02-28T00:01:11;101826.41;;;4.88;57.84
72548;BME280;60570;50.848;6.776;2023-02-28T00:02:12;101825.59;;;4.87;57.97
72548;BME280;60570;50.848;6.776;2023-02-28T00:03:12;101823.41;;;4.94;57.46
72548;BME280;60570;50.848;6.776;2023-02-28T00:04:13;101826.72;;;4.91;57.68
72548;BME280;60570;50.848;6.776;2023-02-28T00:05:16;101830.81;;;4.89;57.71
72548;BME280;60570;50.848;6.776;2023-02-28T00:06:17;101826.72;;;4.91;57.97
72548;BME280;60570;50.848;6.776;2023-02-28T00:07:17;101834.16;;;4.96;57.71
72548;BME280;60570;50.848;6.776;2023-02-28T00:08:18;101818.47;;;4.91;57.60
72548;BME280;60570;50.848;6.776;2023-02-28T00:09:18;101821.50;;;4.95;57.33
72548;BME280;60570;50.848;6.776;2023-02-28T00:10:21;101830.03;;;4.93;57.58
72548;BME280;60570;50.848;6.776;2023-02-28T00:11:23;101822.28;;;4.90;57.75
72548;BME280;60570;50.848;6.776;2023-02-28T00:12:23;101825.88;;;4.91;57.55
72548;BME280;60570;50.848;6.776;2023-02-28T00:13:24;101824.78;;;4.92;57.53
72548;BME280;60570;50.848;6.776;2023-02-28T00:14:24;101817.91;;;4.94;57.75
72548;BME280;60570;50.848;6.776;2023-02-28T00:15:26;101830.84;;;4.94;57.43
72548;BME280;60570;50.848;6.776;2023-02-28T00:16:26;101822.63;;;4.99;57.42
72548;BME280;60570;50.848;6.776;2023-02-28T00:17:27;101820.16;;;4.97;57.40
72548;BME280;60570;50.848;6.776;2023-02-28T00:18:27;101828.13;;;4.99;57.45
72548;BME280;60570;50.848;6.776;2023-02-28T00:19:27;101814.09;;;4.95;57.51
72548;BME280;60570;50.848;6.776;2023-02-28T00:20:28;101824.53;;;4.98;57.55
72548;BME280;60570;50.848;6.776;2023-02-28T00:21:29;101817.63;;;4.96;57.51
72548;BME280;60570;50.848;6.776;2023-02-28T00:22:30;101830.03;;;4.93;57.41
72548;BME280;60570;50.848;6.776;2023-02-28T00:23:31;101821.53;;;5.00;57.24
72548;BME280;60570;50.848;6.776;2023-02-28T00:24:31;101826.22;;;4.99;57.21
72548;BME280;60570;50.848;6.776;2023-02-28T00:25:32;101828.44;;;5.02;57.28
72548;BME280;60570;50.848;6.776;2023-02-28T00:26:32;101822.34;;;5.00;57.53
72548;BME280;60570;50.848;6.776;2023-02-28T00:27:35;101817.97;;;4.99;57.18
72548;BME280;60570;50.848;6.776;2023-02-28T00:28:36;101836.91;;;4.96;57.38
72548;BME280;60570;50.848;6.776;2023-02-28T00:29:37;101822.91;;;4.97;57.36
72548;BME280;60570;50.848;6.776;2023-02-28T00:30:38;101829.19;;;4.93;57.38
72548;BME280;60570;50.848;6.776;2023-02-28T00:31:38;101831.41;;;4.96;57.25
72548;BME280;60570;50.848;6.776;2023-02-28T00:32:39;101824.25;;;4.95;57.38
72548;BME280;60570;50.848;6.776;2023-02-28T00:33:39;101830.81;;;4.89;57.54
72548;BME280;60570;50.848;6.776;2023-02-28T00:34:40;101828.63;;;4.91;57.44
72548;BME280;60570;50.848;6.776;2023-02-28T00:35:40;101825.31;;;4.89;57.66
72548;BME280;60570;50.848;6.776;2023-02-28T00:36:41;101830.03;;;4.93;57.32
72548;BME280;60570;50.848;6.776;2023-02-28T00:37:45;101822.28;;;4.90;57.34
72548;BME280;60570;50.848;6.776;2023-02-28T00:38:45;101826.97;;;4.90;57.20
72548;BME280;60570;50.848;6.776;2023-02-28T00:39:46;101831.38;;;4.86;57.17
72548;BME280;60570;50.848;6.776;2023-02-28T00:40:47;101825.88;;;4.91;57.66
72548;BME280;60570;50.848;6.776;2023-02-28T00:41:47;101832.75;;;4.88;57.49
72548;BME280;60570;50.848;6.776;2023-02-28T00:42:47;101823.97;;;4.91;57.13
72548;BME280;60570;50.848;6.776;2023-02-28T00:43:48;101831.38;;;4.86;57.28
72548;BME280;60570;50.848;6.776;2023-02-28T00:44:48;101828.84;;;4.84;57.84
72548;BME280;60570;50.848;6.776;2023-02-28T00:45:49;101822.53;;;4.84;57.59
72548;BME280;60570;50.848;6.776;2023-02-28T00:46:49;101828.56;;;4.81;57.63
72548;BME280;60570;50.848;6.776;2023-02-28T00:47:49;101833.78;;;4.82;57.69
72548;BME280;60570;50.848;6.776;2023-02-28T00:48:50;101834.91;;;4.81;57.56
72548;BME280;60570;50.848;6.776;2023-02-28T00:49:50;101833.50;;;4.79;57.48
72548;BME280;60570;50.848;6.776;2023-02-28T00:50:51;101829.91;;;4.78;57.76
72548;BME280;60570;50.848;6.776;2023-02-28T00:51:52;101826.91;;;4.80;57.65
72548;BME280;60570;50.848;6.776;2023-02-28T00:52:53;101828.56;;;4.81;57.50
72548;BME280;60570;50.848;6.776;2023-02-28T00:53:53;101828.56;;;4.81;57.58
72548;BME280;60570;50.848;6.776;2023-02-28T00:54:54;101830.25;;;4.87;57.38
72548;BME280;60570;50.848;6.776;2023-02-28T00:55:55;101824.22;;;4.90;57.51
72548;BME280;60570;50.848;6.776;2023-02-28T00:56:56;101834.41;;;4.89;57.22
72548;BME280;60570;50.848;6.776;2023-02-28T00:57:56;101834.13;;;4.91;57.46
72548;BME280;60570;50.848;6.776;2023-02-28T00:58:57;101836.09;;;4.95;57.00
72548;BME280;60570;50.848;6.776;2023-02-28T00:59:57;101834.16;;;4.96;57.45
72548;BME280;60570;50.848;6.776;2023-02-28T01:00:58;101837.19;;;4.94;57.19
72548;BME280;60570;50.848;6.776;2023-02-28T01:01:58;101834.72;;;4.93;57.10
72548;BME280;60570;50.848;6.776;2023-02-28T01:02:58;101833.56;;;4.89;57.56
72548;BME280;60570;50.848;6.776;2023-02-28T01:03:59;101840.44;;;4.86;57.39
72548;BME280;60570;50.848;6.776;2023-02-28T01:05:00;101839.34;;;4.87;57.61
72548;BME280;60570;50.848;6.776;2023-02-28T01:06:04;101836.88;;;4.86;57.67
72548;BME280;60570;50.848;6.776;2023-02-28T01:07:04;101830.56;;;4.90;57.38
72548;BME280;60570;50.848;6.776;2023-02-28T01:08:04;101836.06;;;4.90;57.09
72548;BME280;60570;50.848;6.776;2023-02-28T01:09:06;101838.81;;;4.90;57.34
72548;BME280;60570;50.848;6.776;2023-02-28T01:10:07;101838.25;;;4.88;57.55
72548;BME280;60570;50.848;6.776;2023-02-28T01:11:13;101836.31;;;4.89;57.36
72548;BME280;60570;50.848;6.776;2023-02-28T01:12:15;101833.31;;;4.90;57.54
72548;BME280;60570;50.848;6.776;2023-02-28T01:13:16;101831.91;;;4.88;57.42
72548;BME280;60570;50.848;6.776;2023-02-28T01:14:17;101838.25;;;4.88;57.22
72548;BME280;60570;50.848;6.776;2023-02-28T01:15:18;101836.06;;;4.90;57.38
72548;BME280;60570;50.848;6.776;2023-02-28T01:16:18;101833.31;;;4.90;57.07
72548;BME280;60570;50.848;6.776;2023-02-28T01:17:19;101833.91;;;4.97;57.20
72548;BME280;60570;50.848;6.776;2023-02-28T01:18:20;101836.09;;;4.95;57.36
72548;BME280;60570;50.848;6.776;2023-02-28T01:19:21;101835.00;;;4.96;56.93
72548;BME280;60570;50.848;6.776;2023-02-28T01:20:21;101839.94;;;4.94;57.07
72548;BME280;60570;50.848;6.776;2023-02-28T01:21:23;101830.28;;;4.92;57.37
72548;BME280;60570;50.848;6.776;2023-02-28T01:22:23;101831.94;;;4.93;57.21
72548;BME280;60570;50.848;6.776;2023-02-28T01:23:24;101838.81;;;4.90;57.13
72548;BME280;60570;50.848;6.776;2023-02-28T01:24:24;101836.91;;;4.91;57.64
72548;BME280;60570;50.848;6.776;2023-02-28T01:25:25;101838.03;;;4.95;57.39
72548;BME280;60570;50.848;6.776;2023-02-28T01:26:25;101831.97;;;4.98;56.73
72548;BME280;60570;50.848;6.776;2023-02-28T01:27:26;101838.31;;;4.98;57.01
72548;BME280;60570;50.848;6.776;2023-02-28T01:28:27;101826.22;;;4.99;56.94
72548;BME280;60570;50.848;6.776;2023-02-28T01:29:27;101837.47;;;4.98;56.77
72548;BME280;60570;50.848;6.776;2023-02-28T01:30:28;101832.53;;;5.00;56.67
72548;BME280;60570;50.848;6.776;2023-02-28T01:31:28;101829.75;;;4.95;57.00
72548;BME280;60570;50.848;6.776;2023-02-28T01:32:28;101832.25;;;4.96;57.02
72548;BME280;60570;50.848;6.776;2023-02-28T01:33:29;101830.84;;;4.94;56.97
72548;BME280;60570;50.848;6.776;2023-02-28T01:34:30;101833.59;;;4.94;56.73
72548;BME280;60570;50.848;6.776;2023-02-28T01:35:34;101838.03;;;4.95;56.64
72548;BME280;60570;50.848;6.776;2023-02-28T01:36:35;101833.91;;;4.97;56.93
72548;BME280;60570;50.848;6.776;2023-02-28T01:37:36;101830.56;;;4.90;56.77
72548;BME280;60570;50.848;6.776;2023-02-28T01:38:37;101832.25;;;4.96;56.56
72548;BME280;60570;50.848;6.776;2023-02-28T01:39:37;101830.28;;;4.92;57.30
72548;BME280;60570;50.848;6.776;2023-02-28T01:40:38;101831.41;;;4.96;56.58
72548;BME280;60570;50.848;6.776;2023-02-28T01:41:39;101826.16;;;4.94;56.83
72548;BME280;60570;50.848;6.776;2023-02-28T01:42:39;101832.81;;;4.98;56.87
72548;BME280;60570;50.848;6.776;2023-02-28T01:45:04;101828.63;;;4.91;56.93
72548;BME280;60570;50.848;6.776;2023-02-28T01:46:06;101821.22;;;4.91;56.78
72548;BME280;60570;50.848;6.776;2023-02-28T01:47:07;101824.78;;;4.92;56.89
72548;BME280;60570;50.848;6.776;2023-02-28T01:48:08;101826.44;;;4.93;56.90
72548;BME280;60570;50.848;6.776;2023-02-28T01:49:13;101827.00;;;4.95;56.62
72548;BME280;60570;50.848;6.776;2023-02-28T01:50:19;101823.13;;;4.91;57.13
72548;BME280;60570;50.848;6.776;2023-02-28T01:52:31;101823.41;;;4.89;56.65
72548;BME280;60570;50.848;6.776;2023-02-28T01:53:37;101817.91;;;4.89;56.73
72548;BME280;60570;50.848;6.776;2023-02-28T01:54:39;101819.31;;;4.97;56.84
72548;BME280;60570;50.848;6.776;2023-02-28T01:55:41;101818.13;;;4.83;56.69
72548;BME280;60570;50.848;6.776;2023-02-28T01:57:07;101819.81;;;4.89;57.06
72548;BME280;60570;50.848;6.776;2023-02-28T01:58:10;101826.72;;;4.91;56.74
72548;BME280;60570;50.848;6.776;2023-02-28T01:59:13;101819.53;;;4.90;56.97
72548;BME280;60570;50.848;6.776;2023-02-28T02:00:17;101826.09;;;4.84;56.75
72548;BME280;60570;50.848;6.776;2023-02-28T02:01:20;101818.94;;;4.83;56.84
72548;BME280;60570;50.848;6.776;2023-02-28T02:02:24;101820.84;;;4.78;57.07
72548;BME280;60570;50.848;6.776;2023-02-28T02:03:26;101822.78;;;4.82;57.23
72548;BME280;60570;50.848;6.776;2023-02-28T02:04:31;101816.22;;;4.88;56.77
72548;BME280;60570;50.848;6.776;2023-02-28T02:05:33;101814.56;;;4.87;56.88
72548;BME280;60570;50.848;6.776;2023-02-28T02:06:45;101822.00;;;4.87;56.89
72548;BME280;60570;50.848;6.776;2023-02-28T02:07:52;101814.84;;;4.86;56.84
72548;BME280;60570;50.848;6.776;2023-02-28T02:08:54;101822.00;;;4.87;56.67
72548;BME280;60570;50.848;6.776;2023-02-28T02:10:13;101811.53;;;4.84;56.66
72548;BME280;60570;50.848;6.776;2023-02-28T02:11:19;101810.16;;;4.86;56.76
72548;BME280;60570;50.848;6.776;2023-02-28T02:12:31;101810.44;;;4.85;57.08
72548;BME280;60570;50.848;6.776;2023-02-28T02:15:12;101808.25;;;4.92;56.60
72548;BME280;60570;50.848;6.776;2023-02-28T02:17:37;101820.09;;;4.87;56.47
72548;BME280;60570;50.848;6.776;2023-02-28T02:21:18;101806.25;;;4.82;56.81
72548;BME280;60570;50.848;6.776;2023-02-28T02:34:45;101791.09;;;4.75;57.17
72548;BME280;60570;50.848;6.776;2023-02-28T02:38:33;101797.44;;;4.80;56.47
72548;BME280;60570;50.848;6.776;2023-02-28T02:39:47;101794.47;;;4.87;56.82
72548;BME280;60570;50.848;6.776;2023-02-28T02:40:58;101800.53;;;4.89;56.75
72548;BME280;60570;50.848;6.776;2023-02-28T02:42:11;101796.13;;;4.88;56.56
72548;BME280;60570;50.848;6.776;2023-02-28T02:43:19;101799.69;;;4.83;56.98
72548;BME280;60570;50.848;6.776;2023-02-28T02:46:47;101797.19;;;4.82;56.66
72548;BME280;60570;50.848;6.776;2023-02-28T02:47:49;101796.94;;;4.83;56.93
72548;BME280;60570;50.848;6.776;2023-02-28T02:48:51;101796.94;;;4.88;56.49
72548;BME280;60570;50.848;6.776;2023-02-28T02:49:57;101801.31;;;4.84;56.65
72548;BME280;60570;50.848;6.776;2023-02-28T02:51:04;101800.75;;;4.82;56.98
72548;BME280;60570;50.848;6.776;2023-02-28T02:52:14;101800.19;;;4.75;57.18
72548;BME280;60570;50.848;6.776;2023-02-28T02:53:20;101798.28;;;4.81;56.92
72548;BME280;60570;50.848;6.776;2023-02-28T02:54:30;101797.44;;;4.80;57.04
72548;BME280;60570;50.848;6.776;2023-02-28T02:55:37;101799.06;;;4.76;57.15
72548;BME280;60570;50.848;6.776;2023-02-28T02:56:39;101805.13;;;4.78;56.40
72548;BME280;60570;50.848;6.776;2023-02-28T02:57:48;101804.63;;;4.81;56.67
72548;BME280;60570;50.848;6.776;2023-02-28T02:58:51;101804.34;;;4.78;56.76
72548;BME280;60570;50.848;6.776;2023-02-28T02:59:56;101813.41;;;4.78;56.74
72548;BME280;60570;50.848;6.776;2023-02-28T03:00:59;101802.66;;;4.77;56.61
72548;BME280;60570;50.848;6.776;2023-02-28T03:02:04;101798.50;;;4.74;56.77
72548;BME280;60570;50.848;6.776;2023-02-28T03:03:07;101800.75;;;4.77;56.73
72548;BME280;60570;50.848;6.776;2023-02-28T03:04:14;101802.38;;;4.73;56.84
72548;BME280;60570;50.848;6.776;2023-02-28T03:05:23;101803.19;;;4.74;56.90
72548;BME280;60570;50.848;6.776;2023-02-28T03:06:25;101806.53;;;4.76;57.05
72548;BME280;60570;50.848;6.776;2023-02-28T03:07:27;101807.31;;;4.76;56.62
72548;BME280;60570;50.848;6.776;2023-02-28T03:08:28;101804.84;;;4.75;57.04
72548;BME280;60570;50.848;6.776;2023-02-28T03:09:33;101802.63;;;4.72;56.70
72548;BME280;60570;50.848;6.776;2023-02-28T03:10:40;101795.47;;;4.71;57.17
72548;BME280;60570;50.848;6.776;2023-02-28T03:11:41;101801.53;;;4.73;56.90
72548;BME280;60570;50.848;6.776;2023-02-28T03:12:50;101801.00;;;4.76;56.80
72548;BME280;60570;50.848;6.776;2023-02-28T03:15:26;101794.13;;;4.78;56.73
72548;BME280;60570;50.848;6.776;2023-02-28T03:16:36;101791.66;;;4.77;56.58
72548;BME280;60570;50.848;6.776;2023-02-28T03:18:01;101789.16;;;4.75;56.98
72548;BME280;60570;50.848;6.776;2023-02-28T03:20:53;101781.19;;;4.79;56.87
72548;BME280;60570;50.848;6.776;2023-02-28T03:25:17;101789.69;;;4.72;56.73
72548;BME280;60570;50.848;6.776;2023-02-28T03:26:21;101783.94;;;4.74;56.76
72548;BME280;60570;50.848;6.776;2023-02-28T03:27:29;101779.81;;;4.76;56.60
72548;BME280;60570;50.848;6.776;2023-02-28T03:28:41;101776.25;;;4.76;56.35
72548;BME280;60570;50.848;6.776;2023-02-28T03:29:50;101782.25;;;4.73;56.84
72548;BME280;60570;50.848;6.776;2023-02-28T03:31:23;101778.16;;;4.75;56.49
72548;BME280;60570;50.848;6.776;2023-02-28T03:32:40;101780.91;;;4.75;56.62
72548;BME280;60570;50.848;6.776;2023-02-28T03:33:51;101774.84;;;4.73;56.59
72548;BME280;60570;50.848;6.776;2023-02-28T03:35:07;101774.81;;;4.68;56.74
72548;BME280;60570;50.848;6.776;2023-02-28T03:36:17;101775.63;;;4.69;56.64
72548;BME280;60570;50.848;6.776;2023-02-28T03:37:22;101779.50;;;4.73;56.64
72548;BME280;60570;50.848;6.776;2023-02-28T03:38:29;101782.25;;;4.68;56.67
72548;BME280;60570;50.848;6.776;2023-02-28T03:40:04;101785.50;;;4.65;56.59
72548;BME280;60570;50.848;6.776;2023-02-28T03:41:23;101783.31;;;4.67;56.71
72548;BME280;60570;50.848;6.776;2023-02-28T03:42:29;101783.88;;;4.69;56.50
72548;BME280;60570;50.848;6.776;2023-02-28T03:43:35;101783.88;;;4.64;56.90
72548;BME280;60570;50.848;6.776;2023-02-28T03:44:41;101783.31;;;4.67;56.57
72548;BME280;60570;50.848;6.776;2023-02-28T03:45:43;101779.78;;;4.71;56.38
72548;BME280;60570;50.848;6.776;2023-02-28T03:46:54;101785.50;;;4.65;56.49
72548;BME280;60570;50.848;6.776;2023-02-28T03:48:03;101788.53;;;4.63;56.87
72548;BME280;60570;50.848;6.776;2023-02-28T03:49:26;101787.69;;;4.63;56.76
72548;BME280;60570;50.848;6.776;2023-02-28T03:50:40;101783.59;;;4.65;56.87
72548;BME280;60570;50.848;6.776;2023-02-28T03:51:42;101787.47;;;4.64;56.73
72548;BME280;60570;50.848;6.776;2023-02-28T03:53:03;101785.84;;;4.68;56.27
72548;BME280;60570;50.848;6.776;2023-02-28T03:54:10;101783.09;;;4.68;56.76
72548;BME280;60570;50.848;6.776;2023-02-28T03:55:15;101778.88;;;4.61;56.58
72548;BME280;60570;50.848;6.776;2023-02-28T03:57:51;101790.78;;;4.66;56.59
72548;BME280;60570;50.848;6.776;2023-02-28T03:58:57;101788.03;;;4.66;56.50
72548;BME280;60570;50.848;6.776;2023-02-28T04:00:21;101785.84;;;4.68;56.22
72548;BME280;60570;50.848;6.776;2023-02-28T04:01:32;101787.41;;;4.59;56.67
72548;BME280;60570;50.848;6.776;2023-02-28T04:02:35;101786.34;;;4.65;56.37
72548;BME280;60570;50.848;6.776;2023-02-28T04:03:37;101793.75;;;4.65;56.30
72548;BME280;60570;50.848;6.776;2023-02-28T04:04:38;101791.00;;;4.65;56.54
72548;BME280;60570;50.848;6.776;2023-02-28T04:05:51;101787.19;;;4.66;56.20
72548;BME280;60570;50.848;6.776;2023-02-28T04:07:01;101791.84;;;4.65;56.46
72548;BME280;60570;50.848;6.776;2023-02-28T04:08:06;101791.00;;;4.65;56.40
72548;BME280;60570;50.848;6.776;2023-02-28T04:09:08;101789.94;;;4.66;56.63
72548;BME280;60570;50.848;6.776;2023-02-28T04:10:11;101787.47;;;4.64;56.39
72548;BME280;60570;50.848;6.776;2023-02-28T04:11:20;101786.91;;;4.67;56.28
72548;BME280;60570;50.848;6.776;2023-02-28T04:12:21;101786.06;;;4.67;56.38
72548;BME280;60570;50.848;6.776;2023-02-28T04:13:23;101790.50;;;4.68;56.41
72548;BME280;60570;50.848;6.776;2023-02-28T04:14:24;101798.13;;;4.61;56.45
72548;BME280;60570;50.848;6.776;2023-02-28T04:15:24;101794.59;;;4.65;56.18
72548;BME280;60570;50.848;6.776;2023-02-28T04:16:28;101795.94;;;4.63;56.54
72548;BME280;60570;50.848;6.776;2023-02-28T04:17:29;101795.94;;;4.63;56.46
72548;BME280;60570;50.848;6.776;2023-02-28T04:18:29;101797.84;;;4.57;56.60
72548;BME280;60570;50.848;6.776;2023-02-28T04:19:30;101795.66;;;4.59;56.32
72548;BME280;60570;50.848;6.776;2023-02-28T04:20:31;101790.41;;;4.57;56.32
72548;BME280;60570;50.848;6.776;2023-02-28T04:21:34;101795.09;;;4.57;56.34
72548;BME280;60570;50.848;6.776;2023-02-28T04:22:35;101789.84;;;4.55;56.49
72548;BME280;60570;50.848;6.776;2023-02-28T04:23:36;101788.72;;;4.51;56.40
72548;BME280;60570;50.848;6.776;2023-02-28T04:24:37;101798.41;;;4.59;56.41
72548;BME280;60570;50.848;6.776;2023-02-28T04:25:41;101801.44;;;4.57;56.21
72548;BME280;60570;50.848;6.776;2023-02-28T04:26:44;101793.19;;;4.57;56.31
72548;BME280;60570;50.848;6.776;2023-02-28T04:27:45;101794.81;;;4.58;55.91
72548;BME280;60570;50.848;6.776;2023-02-28T04:28:45;101800.31;;;4.58;56.24
72548;BME280;60570;50.848;6.776;2023-02-28T04:29:46;101796.22;;;4.61;55.74
72548;BME280;60570;50.848;6.776;2023-02-28T04:30:46;101800.31;;;4.58;55.82
72548;BME280;60570;50.848;6.776;2023-02-28T04:31:47;101800.66;;;4.62;56.39
72548;BME280;60570;50.848;6.776;2023-02-28T04:32:48;101797.31;;;4.60;55.47
72548;BME280;60570;50.848;6.776;2023-02-28T04:33:48;101800.59;;;4.57;56.32
72548;BME280;60570;50.848;6.776;2023-02-28T04:34:48;101807.22;;;4.61;55.73
72548;BME280;60570;50.848;6.776;2023-02-28T04:36:04;101798.13;;;4.55;56.00
72548;BME280;60570;50.848;6.776;2023-02-28T04:37:05;101805.81;;;4.53;56.20
72548;BME280;60570;50.848;6.776;2023-02-28T04:38:06;101801.97;;;4.54;56.19
72548;BME280;60570;50.848;6.776;2023-02-28T04:39:06;101803.03;;;4.53;55.88
72548;BME280;60570;50.848;6.776;2023-02-28T04:40:07;101803.63;;;4.61;56.12
72548;BME280;60570;50.848;6.776;2023-02-28T04:41:08;101795.34;;;4.55;56.17
72548;BME280;60570;50.848;6.776;2023-02-28T04:42:09;101800.03;;;4.55;56.16
72548;BME280;60570;50.848;6.776;2023-02-28T04:43:09;101798.13;;;4.55;56.02
72548;BME280;60570;50.848;6.776;2023-02-28T04:44:10;101800.03;;;4.55;55.79
72548;BME280;60570;50.848;6.776;2023-02-28T04:45:11;101798.94;;;4.56;56.13
72548;BME280;60570;50.848;6.776;2023-02-28T04:46:11;101804.97;;;4.53;56.12
72548;BME280;60570;50.848;6.776;2023-02-28T04:47:12;101806.56;;;4.49;56.38
72548;BME280;60570;50.848;6.776;2023-02-28T04:48:12;101804.66;;;4.49;55.91
72548;BME280;60570;50.848;6.776;2023-02-28T04:49:13;101801.97;;;4.54;55.85
72548;BME280;60570;50.848;6.776;2023-02-28T04:50:14;101805.78;;;4.48;56.15
72548;BME280;60570;50.848;6.776;2023-02-28T04:51:16;101808.56;;;4.53;55.81
72548;BME280;60570;50.848;6.776;2023-02-28T04:52:18;101805.78;;;4.48;56.47
72548;BME280;60570;50.848;6.776;2023-02-28T04:53:19;101808.25;;;4.50;56.23
72548;BME280;60570;50.848;6.776;2023-02-28T04:54:20;101806.91;;;4.52;56.02
72548;BME280;60570;50.848;6.776;2023-02-28T04:55:20;101801.34;;;4.47;56.06
72548;BME280;60570;50.848;6.776;2023-02-28T04:56:21;101809.59;;;4.47;56.33
72548;BME280;60570;50.848;6.776;2023-02-28T04:57:21;101812.91;;;4.49;55.94
72548;BME280;60570;50.848;6.776;2023-02-28T04:58:22;101809.59;;;4.47;56.03
72548;BME280;60570;50.848;6.776;2023-02-28T04:59:24;101811.50;;;4.47;56.08
72548;BME280;60570;50.848;6.776;2023-02-28T05:00:24;101807.09;;;4.41;56.32
72548;BME280;60570;50.848;6.776;2023-02-28T05:01:28;101809.88;;;4.46;55.92
72548;BME280;60570;50.848;6.776;2023-02-28T05:02:29;101812.66;;;4.51;55.95
72548;BME280;60570;50.848;6.776;2023-02-28T05:03:29;101814.25;;;4.47;56.06
72548;BME280;60570;50.848;6.776;2023-02-28T05:04:30;101809.59;;;4.47;56.25
72548;BME280;60570;50.848;6.776;2023-02-28T05:05:34;101814.84;;;4.49;55.83
72548;BME280;60570;50.848;6.776;2023-02-28T05:06:34;101815.66;;;4.49;55.86
72548;BME280;60570;50.848;6.776;2023-02-28T05:07:35;101811.56;;;4.52;55.50
72548;BME280;60570;50.848;6.776;2023-02-28T05:08:36;101814.31;;;4.52;55.75
72548;BME280;60570;50.848;6.776;2023-02-28T05:09:37;101808.75;;;4.47;55.70
72548;BME280;60570;50.848;6.776;2023-02-28T05:10:37;101817.53;;;4.39;56.29
72548;BME280;60570;50.848;6.776;2023-02-28T05:11:38;101824.16;;;4.43;55.83
72548;BME280;60570;50.848;6.776;2023-02-28T05:12:39;101817.53;;;4.39;56.10
72548;BME280;60570;50.848;6.776;2023-02-28T05:13:40;101821.09;;;4.39;56.00
72548;BME280;60570;50.848;6.776;2023-02-28T05:14:40;101824.09;;;4.38;56.49
72548;BME280;60570;50.848;6.776;2023-02-28T05:15:40;101823.81;;;4.34;56.42
72548;BME280;60570;50.848;6.776;2023-02-28T05:16:41;101825.50;;;4.40;55.88
72548;BME280;60570;50.848;6.776;2023-02-28T05:17:42;101821.09;;;4.39;56.00
72548;BME280;60570;50.848;6.776;2023-02-28T05:18:43;101824.16;;;4.43;55.99
72548;BME280;60570;50.848;6.776;2023-02-28T05:19:44;101820.56;;;4.42;55.97
72548;BME280;60570;50.848;6.776;2023-02-28T05:20:45;101819.44;;;4.38;55.87
72548;BME280;60570;50.848;6.776;2023-02-28T05:21:51;101818.09;;;4.41;55.89
72548;BME280;60570;50.848;6.776;2023-02-28T05:22:52;101822.75;;;4.40;56.03
72548;BME280;60570;50.848;6.776;2023-02-28T05:23:53;101820.84;;;4.41;55.89
72548;BME280;60570;50.848;6.776;2023-02-28T05:24:53;101824.09;;;4.38;55.91
72548;BME280;60570;50.848;6.776;2023-02-28T05:25:54;101821.63;;;4.36;55.84
72548;BME280;60570;50.848;6.776;2023-02-28T05:26:54;101815.56;;;4.34;55.79
72548;BME280;60570;50.848;6.776;2023-02-28T05:27:55;101818.56;;;4.33;55.76
72548;BME280;60570;50.848;6.776;2023-02-28T05:28:55;101823.53;;;4.36;56.10
72548;BME280;60570;50.848;6.776;2023-02-28T05:29:56;101824.38;;;4.36;55.99
72548;BME280;60570;50.848;6.776;2023-02-28T05:30:56;101814.44;;;4.35;55.99
72548;BME280;60570;50.848;6.776;2023-02-28T05:31:57;101814.72;;;4.34;56.31
72548;BME280;60570;50.848;6.776;2023-02-28T05:32:58;101813.31;;;4.31;56.17
72548;BME280;60570;50.848;6.776;2023-02-28T05:33:58;101816.59;;;4.28;56.22
72548;BME280;60570;50.848;6.776;2023-02-28T05:34:58;101812.75;;;4.29;56.27
72548;BME280;60570;50.848;6.776;2023-02-28T05:35:59;101815.50;;;4.29;56.42
72548;BME280;60570;50.848;6.776;2023-02-28T05:36:59;101821.00;;;4.29;55.94
72548;BME280;60570;50.848;6.776;2023-02-28T05:38:00;101818.78;;;4.26;56.13
72548;BME280;60570;50.848;6.776;2023-02-28T05:39:00;101814.94;;;4.27;56.29
72548;BME280;60570;50.848;6.776;2023-02-28T05:40:01;101814.97;;;4.32;55.91
72548;BME280;60570;50.848;6.776;2023-02-28T05:41:11;101815.25;;;4.31;55.93
72548;BME280;60570;50.848;6.776;2023-02-28T05:42:11;101825.72;;;4.34;55.73
72548;BME280;60570;50.848;6.776;2023-02-28T05:43:11;101821.88;;;4.35;55.93
72548;BME280;60570;50.848;6.776;2023-02-28T05:44:12;101818.00;;;4.31;55.73
72548;BME280;60570;50.848;6.776;2023-02-28T05:45:13;101813.31;;;4.31;55.95
72548;BME280;60570;50.848;6.776;2023-02-28T05:46:13;101819.38;;;4.33;55.92
72548;BME280;60570;50.848;6.776;2023-02-28T05:47:14;101819.72;;;4.37;55.65
72548;BME280;60570;50.848;6.776;2023-02-28T05:48:15;101819.06;;;4.30;55.85
72548;BME280;60570;50.848;6.776;2023-02-28T05:49:17;101825.16;;;4.32;55.63
72548;BME280;60570;50.848;6.776;2023-02-28T05:50:17;101815.56;;;4.34;55.62
72548;BME280;60570;50.848;6.776;2023-02-28T05:51:17;101816.06;;;4.31;55.84
72548;BME280;60570;50.848;6.776;2023-02-28T05:52:18;101814.41;;;4.30;56.12
72548;BME280;60570;50.848;6.776;2023-02-28T05:53:18;101818.25;;;4.29;55.73
72548;BME280;60570;50.848;6.776;2023-02-28T05:54:19;101816.59;;;4.28;56.00
72548;BME280;60570;50.848;6.776;2023-02-28T05:55:19;101812.44;;;4.26;56.12
72548;BME280;60570;50.848;6.776;2023-02-28T05:56:20;101815.47;;;4.24;55.80
72548;BME280;60570;50.848;6.776;2023-02-28T05:57:21;101822.09;;;4.28;56.03
72548;BME280;60570;50.848;6.776;2023-02-28T05:58:22;101815.19;;;4.26;55.83
72548;BME280;60570;50.848;6.776;2023-02-28T05:59:22;101817.13;;;4.25;55.57
72548;BME280;60570;50.848;6.776;2023-02-28T06:00:23;101818.22;;;4.24;55.93
72548;BME280;60570;50.848;6.776;2023-02-28T06:01:37;101813.81;;;4.23;56.09
72548;BME280;60570;50.848;6.776;2023-02-28T06:02:39;101816.00;;;4.21;55.93
72548;BME280;60570;50.848;6.776;2023-02-28T06:03:40;101818.78;;;4.26;56.04
72548;BME280;60570;50.848;6.776;2023-02-28T06:04:41;101811.31;;;4.22;55.72
72548;BME280;60570;50.848;6.776;2023-02-28T06:05:42;101811.00;;;4.18;56.25
72548;BME280;60570;50.848;6.776;2023-02-28T06:06:42;101811.31;;;4.22;56.10
72548;BME280;60570;50.848;6.776;2023-02-28T06:07:43;101814.94;;;4.27;55.92